createdAt,value
2023-03-21T00:00:59.389Z,60.30
2023-03-21T00:03:26.705Z,61.00
2023-03-21T00:05:55.696Z,60.40
2023-03-21T00:08:31.239Z,60.40
2023-03-21T00:11:04.918Z,60.50
2023-03-21T00:13:33.092Z,60.50
2023-03-21T00:16:29.463Z,60.70
2023-03-21T00:19:04.745Z,60.70
2023-03-21T00:21:55.640Z,60.60
2023-03-21T00:24:27.698Z,60.60
2023-03-21T00:26:57.325Z,60.70
2023-03-21T00:29:31.526Z,60.70
2023-03-21T00:32:06.232Z,60.70
2023-03-21T00:34:43.380Z,60.80
2023-03-21T00:37:18.833Z,60.80
2023-03-21T00:39:54.059Z,60.90
2023-03-21T00:42:23.826Z,60.90
2023-03-21T00:44:50.507Z,60.90
2023-03-21T00:47:17.083Z,61.00
2023-03-21T00:49:49.171Z,61.10
2023-03-21T00:52:22.381Z,61.10
2023-03-21T00:54:57.740Z,61.20
2023-03-21T00:57:38.106Z,61.10
2023-03-21T01:00:10.968Z,61.20
2023-03-21T01:03:02.632Z,61.20
2023-03-21T01:05:59.037Z,61.30
2023-03-21T01:08:35.217Z,61.60
2023-03-21T01:11:15.960Z,61.40
2023-03-21T01:13:54.902Z,61.90
2023-03-21T01:16:34.296Z,61.70
2023-03-21T01:19:09.425Z,61.70
2023-03-21T01:21:45.284Z,61.90
2023-03-21T01:24:12.514Z,62.00
2023-03-21T01:26:41.687Z,62.10
2023-03-21T01:29:11.250Z,62.30
2023-03-21T01:31:38.087Z,62.20
2023-03-21T01:34:08.905Z,62.30
2023-03-21T01:36:37.973Z,62.40
2023-03-21T01:39:16.079Z,62.40
2023-03-21T01:41:45.555Z,62.40
2023-03-21T01:44:24.662Z,63.10
2023-03-21T01:47:13.406Z,62.50
2023-03-21T01:49:53.611Z,62.60
2023-03-21T01:52:37.811Z,62.70
2023-03-21T01:55:21.667Z,63.00
2023-03-21T01:58:09.056Z,62.70
2023-03-21T02:00:53.863Z,62.70
2023-03-21T02:03:38.161Z,62.70
2023-03-21T02:06:31.548Z,62.80
2023-03-21T02:09:09.921Z,63.20
2023-03-21T02:11:38.070Z,63.00
2023-03-21T02:14:07.965Z,63.10
2023-03-21T02:17:10.334Z,63.30
2023-03-21T02:19:54.358Z,63.60
2023-03-21T02:22:43.055Z,63.60
2023-03-21T02:25:22.753Z,64.10
2023-03-21T02:27:59.695Z,64.40
2023-03-21T02:30:52.096Z,64.40
2023-03-21T02:33:57.096Z,64.80
2023-03-21T02:36:53.257Z,64.80
2023-03-21T02:39:39.886Z,64.90
2023-03-21T02:42:30.719Z,64.60
2023-03-21T02:45:09.226Z,65.00
2023-03-21T02:48:14.586Z,64.80
2023-03-21T02:50:51.332Z,65.20
2023-03-21T02:53:22.386Z,64.80
2023-03-21T02:55:54.505Z,64.90
2023-03-21T02:58:25.590Z,64.90
2023-03-21T03:01:00.889Z,65.00
2023-03-21T03:03:42.500Z,64.90
2023-03-21T03:06:22.054Z,64.90
2023-03-21T03:09:04.376Z,65.30
2023-03-21T03:11:36.548Z,65.20
2023-03-21T03:14:38.522Z,64.90
2023-03-21T03:17:22.298Z,64.90
2023-03-21T03:20:22.652Z,64.90
2023-03-21T03:23:11.548Z,65.30
2023-03-21T03:25:53.459Z,65.00
2023-03-21T03:28:27.734Z,65.00
2023-03-21T03:31:08.726Z,64.80
2023-03-21T03:33:51.718Z,64.80
2023-03-21T03:36:31.433Z,65.00
2023-03-21T03:39:10.217Z,65.20
2023-03-21T03:42:27.634Z,65.40
2023-03-21T03:44:51.640Z,66.00
2023-03-21T03:47:56.668Z,65.80
2023-03-21T03:50:50.543Z,67.00
2023-03-21T03:53:36.841Z,67.00
2023-03-21T03:56:09.568Z,66.40
2023-03-21T03:58:45.773Z,66.40
2023-03-21T04:01:15.877Z,67.20
2023-03-21T04:04:00.869Z,66.40
2023-03-21T04:06:38.450Z,66.60
2023-03-21T04:09:20.495Z,66.70
2023-03-21T04:11:50.490Z,66.60
2023-03-21T04:14:22.570Z,66.50
2023-03-21T04:16:52.261Z,66.70
2023-03-21T04:19:26.402Z,66.80
2023-03-21T04:21:59.106Z,66.80
2023-03-21T04:24:33.346Z,67.20
2023-03-21T04:27:03.086Z,67.20
2023-03-21T04:29:43.362Z,67.10
2023-03-21T04:32:39.424Z,67.10
2023-03-21T04:35:11.448Z,67.20
2023-03-21T04:37:39.098Z,67.20
2023-03-21T04:40:12.244Z,67.30
2023-03-21T04:42:39.078Z,67.50
2023-03-21T04:45:10.682Z,67.60
2023-03-21T04:47:40.671Z,67.60
2023-03-21T04:50:10.777Z,67.70
2023-03-21T04:52:40.025Z,67.90
2023-03-21T04:55:09.946Z,67.80
2023-03-21T04:57:39.809Z,67.80
2023-03-21T05:00:13.804Z,68.00
2023-03-21T05:02:50.350Z,68.00
2023-03-21T05:05:16.942Z,68.40
2023-03-21T05:07:46.112Z,68.10
2023-03-21T05:10:16.259Z,68.10
2023-03-21T05:12:43.718Z,68.20
2023-03-21T05:15:10.644Z,68.20
2023-03-21T05:17:40.479Z,68.20
2023-03-21T05:20:14.790Z,68.30
2023-03-21T05:22:42.747Z,68.30
2023-03-21T05:25:13.502Z,68.60
2023-03-21T05:28:01.843Z,67.80
2023-03-21T05:30:32.856Z,67.90
2023-03-21T05:33:01.322Z,67.90
2023-03-21T05:35:28.874Z,68.00
2023-03-21T05:37:58.477Z,68.10
2023-03-21T05:40:33.000Z,68.20
2023-03-21T05:43:00.603Z,68.20
2023-03-21T05:45:27.328Z,68.20
2023-03-21T05:47:55.253Z,68.30
2023-03-21T05:50:26.307Z,68.20
2023-03-21T05:53:08.109Z,68.40
2023-03-21T05:55:36.285Z,68.40
2023-03-21T05:58:05.660Z,68.60
2023-03-21T06:00:32.690Z,68.80
2023-03-21T06:03:22.643Z,68.90
2023-03-21T06:06:15.551Z,68.80
2023-03-21T06:09:05.221Z,68.80
2023-03-21T06:11:38.843Z,68.70
2023-03-21T06:14:31.836Z,69.10
2023-03-21T06:17:14.337Z,68.80
2023-03-21T06:19:46.946Z,68.70
2023-03-21T06:22:19.089Z,68.60
2023-03-21T06:24:45.759Z,68.50
2023-03-21T06:27:12.828Z,68.60
2023-03-21T06:29:55.396Z,68.40
2023-03-21T06:32:22.735Z,68.20
2023-03-21T06:34:54.613Z,68.20
2023-03-21T06:37:21.234Z,68.30
2023-03-21T06:39:47.884Z,68.40
2023-03-21T06:42:15.257Z,68.50
2023-03-21T06:44:43.540Z,68.60
2023-03-21T06:47:13.953Z,68.60
2023-03-21T06:49:43.690Z,68.50
2023-03-21T06:52:12.384Z,69.20
2023-03-21T06:54:39.742Z,68.50
2023-03-21T06:57:14.386Z,68.60
2023-03-21T06:59:41.850Z,68.60
2023-03-21T07:02:36.955Z,68.60
2023-03-21T07:05:09.632Z,68.40
2023-03-21T07:07:37.341Z,68.30
2023-03-21T07:10:04.961Z,68.30
2023-03-21T07:12:40.973Z,68.30
2023-03-21T07:15:34.591Z,68.30
2023-03-21T07:18:01.335Z,68.10
2023-03-21T07:20:28.547Z,68.20
2023-03-21T07:22:55.179Z,68.20
2023-03-21T07:25:25.928Z,68.10
2023-03-21T07:27:53.015Z,68.00
2023-03-21T07:30:22.621Z,67.90
2023-03-21T07:32:49.231Z,67.80
2023-03-21T07:35:19.785Z,67.60
2023-03-21T07:37:47.179Z,67.70
2023-03-21T07:40:16.345Z,67.70
2023-03-21T07:42:42.970Z,67.70
2023-03-21T07:45:16.462Z,67.60
2023-03-21T07:47:45.565Z,67.60
2023-03-21T07:50:12.437Z,68.30
2023-03-21T07:52:39.232Z,67.80
2023-03-21T07:55:06.393Z,68.00
2023-03-21T07:57:34.610Z,68.00
2023-03-21T08:00:01.252Z,68.00
2023-03-21T08:02:27.936Z,68.00
2023-03-21T08:04:54.580Z,68.30
2023-03-21T08:07:21.179Z,68.30
2023-03-21T08:09:50.471Z,68.30
2023-03-21T08:12:17.469Z,68.30
2023-03-21T08:14:44.338Z,68.40
2023-03-21T08:17:11.113Z,68.30
2023-03-21T08:19:37.750Z,68.30
2023-03-21T08:22:06.589Z,69.00
2023-03-21T08:24:40.746Z,68.30
2023-03-21T08:27:07.616Z,68.60
2023-03-21T08:29:40.375Z,68.60
2023-03-21T08:32:06.945Z,68.80
2023-03-21T08:34:33.631Z,68.70
2023-03-21T08:37:01.103Z,68.60
2023-03-21T08:39:28.329Z,68.60
2023-03-21T08:41:54.948Z,68.70
2023-03-21T08:44:25.157Z,68.90
2023-03-21T08:46:51.703Z,68.70
2023-03-21T08:49:18.356Z,68.50
2023-03-21T08:51:45.593Z,68.60
2023-03-21T08:54:24.903Z,68.60
2023-03-21T08:56:51.553Z,68.70
2023-03-21T08:59:18.193Z,68.40
2023-03-21T09:01:45.382Z,68.10
2023-03-21T09:04:12.214Z,67.90
2023-03-21T09:06:48.581Z,67.70
2023-03-21T09:09:16.229Z,67.80
2023-03-21T09:11:43.376Z,67.50
2023-03-21T09:14:12.224Z,67.70
2023-03-21T09:16:38.827Z,67.70
2023-03-21T09:19:08.430Z,67.50
2023-03-21T09:21:35.794Z,67.20
2023-03-21T09:24:02.738Z,67.20
2023-03-21T09:26:29.330Z,67.20
2023-03-21T09:28:56.370Z,67.30
2023-03-21T09:31:23.306Z,67.40
2023-03-21T09:33:51.495Z,67.20
2023-03-21T09:36:21.734Z,66.90
2023-03-21T09:38:49.884Z,66.70
2023-03-21T09:41:38.657Z,66.80
2023-03-21T09:44:24.524Z,67.10
2023-03-21T09:47:21.488Z,67.20
2023-03-21T09:50:01.753Z,67.60
2023-03-21T09:52:45.501Z,67.60
2023-03-21T09:55:24.199Z,68.10
2023-03-21T09:58:07.926Z,68.80
2023-03-21T10:00:41.641Z,68.80
2023-03-21T10:03:24.479Z,68.90
2023-03-21T10:06:00.535Z,68.60
2023-03-21T10:08:36.369Z,68.70
2023-03-21T10:11:13.786Z,68.80
2023-03-21T10:13:48.995Z,68.50
2023-03-21T10:16:21.074Z,68.30
2023-03-21T10:18:51.236Z,67.70
2023-03-21T10:21:59.047Z,67.60
2023-03-21T10:24:28.220Z,67.10
2023-03-21T10:26:56.399Z,66.80
2023-03-21T10:29:36.859Z,66.60
2023-03-21T10:32:03.851Z,66.60
2023-03-21T10:34:37.381Z,66.70
2023-03-21T10:37:05.531Z,66.50
2023-03-21T10:39:49.082Z,66.50
2023-03-21T10:42:36.180Z,66.30
2023-03-21T10:45:03.126Z,65.80
2023-03-21T10:47:34.573Z,65.60
2023-03-21T10:50:08.954Z,65.20
2023-03-21T10:52:42.497Z,65.00
2023-03-21T10:55:31.863Z,64.70
2023-03-21T10:58:08.435Z,64.40
2023-03-21T11:00:38.740Z,63.80
2023-03-21T11:03:05.495Z,63.90
2023-03-21T11:05:39.521Z,64.00
2023-03-21T11:08:15.945Z,64.50
2023-03-21T11:10:55.043Z,63.40
2023-03-21T11:13:36.542Z,63.20
2023-03-21T11:16:18.092Z,62.90
2023-03-21T11:18:50.191Z,62.90
2023-03-21T11:21:17.653Z,62.60
2023-03-21T11:23:47.897Z,62.70
2023-03-21T11:26:27.075Z,62.10
2023-03-21T11:28:54.930Z,62.30
2023-03-21T11:31:24.691Z,61.80
2023-03-21T11:33:59.754Z,61.70
2023-03-21T11:36:40.685Z,60.90
2023-03-21T11:39:33.417Z,59.80
2023-03-21T11:41:59.988Z,59.90
2023-03-21T11:44:33.086Z,60.70
2023-03-21T11:47:00.718Z,60.00
2023-03-21T11:49:28.137Z,60.00
2023-03-21T11:52:09.678Z,59.90
2023-03-21T11:54:57.362Z,59.10
2023-03-21T11:57:44.149Z,59.80
2023-03-21T12:00:23.605Z,60.50
2023-03-21T12:03:02.547Z,60.30
2023-03-21T12:05:36.259Z,59.90
2023-03-21T12:08:14.656Z,59.70
2023-03-21T12:10:57.601Z,59.40
2023-03-21T12:13:50.242Z,59.30
2023-03-21T12:16:26.052Z,57.50
2023-03-21T12:19:48.947Z,57.30
2023-03-21T12:22:52.357Z,57.30
2023-03-21T12:25:28.834Z,56.80
2023-03-21T12:28:08.226Z,57.30
2023-03-21T12:30:47.435Z,57.30
2023-03-21T12:33:48.523Z,57.00
2023-03-21T12:36:41.802Z,57.20
2023-03-21T12:39:20.930Z,56.60
2023-03-21T12:42:09.569Z,56.90
2023-03-21T12:44:51.002Z,55.80
2023-03-21T12:47:24.380Z,56.20
2023-03-21T12:50:04.754Z,55.90
2023-03-21T12:52:40.349Z,55.00
2023-03-21T12:55:21.501Z,54.50
2023-03-21T12:58:14.467Z,55.20
2023-03-21T13:00:48.234Z,54.80
2023-03-21T13:03:30.258Z,54.90
2023-03-21T13:06:04.915Z,54.70
2023-03-21T13:08:56.381Z,54.80
2023-03-21T13:11:27.283Z,53.50
2023-03-21T13:13:59.188Z,53.60
2023-03-21T13:16:51.747Z,53.20
2023-03-21T13:19:41.734Z,52.90
2023-03-21T13:22:22.177Z,52.10
2023-03-21T13:24:55.042Z,52.00
2023-03-21T13:27:27.357Z,52.50
2023-03-21T13:30:14.221Z,52.10
2023-03-21T13:32:46.597Z,53.70
2023-03-21T13:35:13.467Z,52.10
2023-03-21T13:37:43.347Z,53.10
2023-03-21T13:40:27.274Z,51.20
2023-03-21T13:42:59.633Z,50.40
2023-03-21T13:45:29.520Z,50.40
2023-03-21T13:47:57.342Z,51.40
2023-03-21T13:50:29.838Z,51.60
2023-03-21T13:53:19.335Z,50.80
2023-03-21T13:55:49.046Z,50.20
2023-03-21T13:58:38.455Z,50.60
2023-03-21T14:01:17.154Z,49.50
2023-03-21T14:03:46.683Z,49.20
2023-03-21T14:06:14.615Z,49.70
2023-03-21T14:08:46.080Z,49.50
2023-03-21T14:11:17.532Z,50.10
2023-03-21T14:13:51.409Z,50.80
2023-03-21T14:16:20.162Z,51.00
2023-03-21T14:18:56.287Z,51.40
2023-03-21T14:21:25.775Z,50.70
2023-03-21T14:24:04.057Z,51.00
2023-03-21T14:26:40.192Z,50.40
2023-03-21T14:29:25.012Z,50.70
2023-03-21T14:32:03.022Z,50.40
2023-03-21T14:34:38.157Z,48.10
2023-03-21T14:37:12.857Z,46.20
2023-03-21T14:39:44.815Z,44.50
2023-03-21T14:42:15.460Z,43.80
2023-03-21T14:44:56.657Z,43.30
2023-03-21T14:47:34.383Z,43.40
2023-03-21T14:50:03.224Z,43.80
2023-03-21T14:52:32.628Z,43.60
2023-03-21T14:55:10.586Z,42.60
2023-03-21T14:57:45.097Z,42.40
2023-03-21T15:00:30.191Z,41.50
2023-03-21T15:03:02.166Z,40.90
2023-03-21T15:05:37.348Z,41.30
2023-03-21T15:08:19.101Z,42.00
2023-03-21T15:11:06.331Z,42.00
2023-03-21T15:13:50.212Z,41.40
2023-03-21T15:16:20.759Z,41.00
2023-03-21T15:18:48.046Z,40.10
2023-03-21T15:21:28.613Z,39.70
2023-03-21T15:24:10.336Z,39.80
2023-03-21T15:26:37.064Z,38.90
2023-03-21T15:29:09.473Z,39.40
2023-03-21T15:31:40.511Z,39.10
2023-03-21T15:34:07.644Z,40.30
2023-03-21T15:36:40.135Z,39.80
2023-03-21T15:39:14.454Z,39.70
2023-03-21T15:41:42.916Z,40.30
2023-03-21T15:44:14.299Z,40.80
2023-03-21T15:46:49.404Z,41.20
2023-03-21T15:49:22.587Z,41.40
2023-03-21T15:52:14.798Z,42.20
2023-03-21T15:54:55.821Z,42.80
2023-03-21T15:57:32.827Z,42.50
2023-03-21T16:00:22.465Z,43.20
2023-03-21T16:02:54.800Z,43.00
2023-03-21T16:05:33.554Z,43.40
2023-03-21T16:08:19.870Z,43.30
2023-03-21T16:10:48.684Z,43.50
2023-03-21T16:13:16.368Z,44.00
2023-03-21T16:15:43.617Z,44.40
2023-03-21T16:18:17.254Z,44.60
2023-03-21T16:20:46.033Z,44.50
2023-03-21T16:23:13.947Z,45.00
2023-03-21T16:25:42.427Z,45.20
2023-03-21T16:28:17.159Z,45.50
2023-03-21T16:30:44.403Z,45.50
2023-03-21T16:33:14.695Z,45.80
2023-03-21T16:35:41.587Z,45.90
2023-03-21T16:38:13.029Z,46.30
2023-03-21T16:40:42.177Z,46.50
2023-03-21T16:43:09.886Z,46.90
2023-03-21T16:45:36.856Z,47.00
2023-03-21T16:48:04.319Z,47.00
2023-03-21T16:50:34.188Z,47.10
2023-03-21T16:53:01.866Z,47.10
2023-03-21T16:55:28.854Z,47.40
2023-03-21T16:57:57.143Z,47.50
2023-03-21T17:00:27.151Z,47.40
2023-03-21T17:02:55.471Z,47.60
2023-03-21T17:05:23.262Z,47.70
2023-03-21T17:07:52.125Z,48.00
2023-03-21T17:10:29.868Z,48.00
2023-03-21T17:12:56.554Z,48.50
2023-03-21T17:15:25.851Z,48.60
2023-03-21T17:17:55.405Z,48.90
2023-03-21T17:20:33.786Z,49.00
2023-03-21T17:23:01.776Z,48.90
2023-03-21T17:25:33.087Z,49.20
2023-03-21T17:27:59.764Z,49.40
2023-03-21T17:30:32.914Z,49.70
2023-03-21T17:33:00.242Z,49.70
2023-03-21T17:35:30.043Z,50.00
2023-03-21T17:38:00.328Z,50.60
2023-03-21T17:40:29.774Z,51.00
2023-03-21T17:43:00.845Z,50.30
2023-03-21T17:45:30.232Z,50.40
2023-03-21T17:47:59.273Z,50.60
2023-03-21T17:50:38.361Z,50.70
2023-03-21T17:53:10.993Z,51.50
2023-03-21T17:55:44.580Z,51.10
2023-03-21T17:58:16.811Z,51.30
2023-03-21T18:00:46.738Z,51.50
2023-03-21T18:03:13.349Z,51.80
2023-03-21T18:05:50.335Z,51.80
2023-03-21T18:08:19.225Z,51.80
2023-03-21T18:10:49.927Z,52.00
2023-03-21T18:13:25.356Z,52.00
2023-03-21T18:15:52.984Z,52.30
2023-03-21T18:18:31.370Z,52.40
2023-03-21T18:21:04.877Z,52.80
2023-03-21T18:23:34.378Z,52.70
2023-03-21T18:26:00.967Z,53.00
2023-03-21T18:28:30.443Z,53.10
2023-03-21T18:31:18.366Z,53.30
2023-03-21T18:33:49.191Z,53.50
2023-03-21T18:36:27.880Z,53.70
2023-03-21T18:38:56.688Z,53.80
2023-03-21T18:41:27.039Z,53.90
2023-03-21T18:44:07.381Z,54.30
2023-03-21T18:46:43.423Z,54.20
2023-03-21T18:49:58.988Z,54.50
2023-03-21T18:51:58.985Z,54.70
2023-03-21T18:54:26.214Z,54.80
2023-03-21T18:59:50.522Z,55.20
2023-03-21T19:02:17.306Z,55.30
2023-03-21T19:04:46.386Z,55.20
2023-03-21T19:07:15.045Z,55.40
2023-03-21T19:12:31.879Z,55.50
2023-03-21T19:15:05.542Z,56.30
2023-03-21T19:20:25.783Z,56.00
2023-03-21T19:22:52.998Z,56.20
2023-03-21T19:25:21.711Z,56.30
2023-03-21T19:27:52.298Z,56.50
2023-03-21T19:30:24.984Z,56.60
2023-03-21T19:32:53.346Z,56.90
2023-03-21T19:35:19.908Z,56.80
2023-03-21T19:37:49.130Z,57.00
2023-03-21T19:40:15.816Z,57.20
2023-03-21T19:42:48.990Z,57.20
2023-03-21T19:45:22.474Z,57.40
2023-03-21T19:47:49.155Z,57.70
2023-03-21T19:53:08.626Z,57.80
2023-03-21T19:55:36.285Z,58.00
2023-03-21T19:58:02.854Z,58.00
2023-03-21T20:00:36.594Z,58.20
2023-03-21T20:03:10.136Z,58.40
2023-03-21T20:05:37.970Z,58.60
2023-03-21T20:08:10.644Z,58.70
2023-03-21T20:10:37.838Z,58.80
2023-03-21T20:13:07.343Z,58.90
2023-03-21T20:15:45.841Z,59.10
2023-03-21T20:18:14.694Z,59.20
2023-03-21T20:20:41.520Z,59.30
2023-03-21T20:23:11.323Z,59.50
2023-03-21T20:25:41.493Z,59.70
2023-03-21T20:28:23.898Z,59.70
2023-03-21T20:31:00.395Z,60.40
2023-03-21T20:33:30.031Z,59.90
2023-03-21T20:38:53.722Z,60.20
2023-03-21T20:41:22.822Z,60.20
2023-03-21T20:46:43.258Z,60.20
2023-03-21T20:49:09.859Z,60.20
2023-03-21T20:54:26.121Z,60.40
2023-03-21T20:56:54.705Z,60.40
2023-03-21T20:59:29.254Z,60.40
2023-03-21T21:02:03.006Z,60.60
2023-03-21T21:04:49.816Z,60.50
2023-03-21T21:07:22.723Z,60.40
2023-03-21T21:09:49.358Z,60.40
2023-03-21T21:12:19.155Z,60.30
2023-03-21T21:14:48.028Z,60.30
2023-03-21T21:17:31.125Z,60.10
2023-03-21T21:20:16.055Z,60.00
2023-03-21T21:22:46.118Z,60.00
2023-03-21T21:25:23.863Z,59.90
2023-03-21T21:27:53.766Z,59.70
2023-03-21T21:30:22.823Z,59.60
2023-03-21T21:32:51.949Z,59.60
2023-03-21T21:35:20.341Z,59.60
2023-03-21T21:37:51.412Z,59.50
2023-03-21T21:40:22.696Z,59.50
2023-03-21T21:42:56.062Z,59.50
2023-03-21T21:45:23.274Z,59.50
2023-03-21T21:47:49.920Z,59.50
2023-03-21T21:50:21.716Z,59.40
2023-03-21T21:52:52.579Z,59.20
2023-03-21T21:55:22.299Z,59.20
2023-03-21T21:57:54.876Z,59.20
2023-03-21T22:00:36.622Z,59.00
2023-03-21T22:03:08.856Z,59.10
2023-03-21T22:05:35.520Z,59.10
2023-03-21T22:08:04.954Z,59.10
2023-03-21T22:10:32.394Z,59.10
2023-03-21T22:13:04.293Z,59.10
2023-03-21T22:15:35.728Z,59.40
2023-03-21T22:18:15.100Z,59.20
2023-03-21T22:20:54.852Z,59.10
2023-03-21T22:23:22.128Z,59.10
2023-03-21T22:25:51.156Z,59.20
2023-03-21T22:28:17.795Z,59.20
2023-03-21T22:30:47.825Z,59.40
2023-03-21T22:33:24.736Z,59.50
2023-03-21T22:35:52.309Z,59.60
2023-03-21T22:38:23.916Z,59.70
2023-03-21T22:41:02.786Z,59.80
2023-03-21T22:43:40.173Z,60.00
2023-03-21T22:46:09.256Z,59.80
2023-03-21T22:48:38.050Z,59.90
2023-03-21T22:51:04.806Z,59.90
2023-03-21T22:53:31.635Z,59.90
2023-03-21T22:56:02.487Z,59.80
2023-03-21T22:58:39.123Z,59.80
2023-03-21T23:01:06.048Z,59.90
2023-03-21T23:03:32.710Z,59.80
2023-03-21T23:06:01.197Z,59.80
2023-03-21T23:08:29.058Z,59.80
2023-03-21T23:11:06.003Z,59.80
2023-03-21T23:13:32.637Z,59.80
2023-03-21T23:16:07.177Z,59.80
2023-03-21T23:18:35.092Z,60.00
2023-03-21T23:21:09.112Z,59.90
2023-03-21T23:23:38.077Z,59.70
2023-03-21T23:26:08.515Z,59.90
2023-03-21T23:28:45.583Z,60.00
2023-03-21T23:31:28.899Z,60.00
2023-03-21T23:34:00.499Z,60.00
2023-03-21T23:36:31.082Z,60.00
2023-03-21T23:38:58.126Z,60.00
2023-03-21T23:41:27.818Z,60.00
2023-03-21T23:43:59.053Z,60.10
2023-03-21T23:46:25.727Z,60.10
2023-03-21T23:48:52.350Z,60.10
2023-03-21T23:51:21.586Z,60.20
2023-03-21T23:53:48.331Z,60.10
2023-03-21T23:56:17.998Z,60.10
2023-03-21T23:58:51.255Z,60.20
